sensor_id;sensor_type;location;lat;lon;timestamp;P1;durP1;ratioP1;P2;durP2;ratioP2
7154;SDS011;3619;53.784;10.440;2023-05-07T00:00:47;6.63;;;6.43;;
7154;SDS011;3619;53.784;10.440;2023-05-07T00:03:14;5.97;;;5.77;;
7154;SDS011;3619;53.784;10.440;2023-05-07T00:05:41;6.10;;;5.90;;
7154;SDS011;3619;53.784;10.440;2023-05-07T00:08:08;7.90;;;7.60;;
7154;SDS011;3619;53.784;10.440;2023-05-07T00:10:36;7.33;;;7.03;;
7154;SDS011;3619;53.784;10.440;2023-05-07T00:13:03;6.77;;;6.57;;
7154;SDS011;3619;53.784;10.440;2023-05-07T00:15:29;5.50;;;5.30;;
7154;SDS011;3619;53.784;10.440;2023-05-07T00:17:56;6.63;;;6.43;;
7154;SDS011;3619;53.784;10.440;2023-05-07T00:20:25;6.13;;;5.93;;
7154;SDS011;3619;53.784;10.440;2023-05-07T00:22:52;7.43;;;7.13;;
7154;SDS011;3619;53.784;10.440;2023-05-07T00:25:19;7.57;;;7.27;;
7154;SDS011;3619;53.784;10.440;2023-05-07T00:27:47;6.57;;;6.37;;
7154;SDS011;3619;53.784;10.440;2023-05-07T00:30:14;6.33;;;6.13;;
7154;SDS011;3619;53.784;10.440;2023-05-07T00:32:41;5.83;;;5.63;;
7154;SDS011;3619;53.784;10.440;2023-05-07T00:35:10;8.23;;;7.87;;
7154;SDS011;3619;53.784;10.440;2023-05-07T00:37:37;4.27;;;4.17;;
7154;SDS011;3619;53.784;10.440;2023-05-07T00:40:05;5.33;;;5.13;;
7154;SDS011;3619;53.784;10.440;2023-05-07T00:42:33;5.33;;;5.13;;
7154;SDS011;3619;53.784;10.440;2023-05-07T00:45:01;4.83;;;4.63;;
7154;SDS011;3619;53.784;10.440;2023-05-07T00:47:28;5.47;;;5.27;;
7154;SDS011;3619;53.784;10.440;2023-05-07T00:49:55;5.00;;;4.80;;
7154;SDS011;3619;53.784;10.440;2023-05-07T00:52:23;5.97;;;5.77;;
7154;SDS011;3619;53.784;10.440;2023-05-07T00:54:52;5.30;;;5.10;;
7154;SDS011;3619;53.784;10.440;2023-05-07T00:57:20;6.27;;;6.07;;
7154;SDS011;3619;53.784;10.440;2023-05-07T00:59:47;6.67;;;6.47;;
7154;SDS011;3619;53.784;10.440;2023-05-07T01:02:16;7.57;;;7.27;;
7154;SDS011;3619;53.784;10.440;2023-05-07T01:04:43;6.40;;;6.20;;
7154;SDS011;3619;53.784;10.440;2023-05-07T01:07:10;6.53;;;6.33;;
7154;SDS011;3619;53.784;10.440;2023-05-07T01:09:37;5.80;;;5.60;;
7154;SDS011;3619;53.784;10.440;2023-05-07T01:12:04;5.73;;;5.53;;
7154;SDS011;3619;53.784;10.440;2023-05-07T01:14:32;6.03;;;5.83;;
7154;SDS011;3619;53.784;10.440;2023-05-07T01:17:00;6.60;;;6.40;;
7154;SDS011;3619;53.784;10.440;2023-05-07T01:19:28;5.70;;;5.50;;
7154;SDS011;3619;53.784;10.440;2023-05-07T01:21:57;5.67;;;5.47;;
7154;SDS011;3619;53.784;10.440;2023-05-07T01:24:30;6.60;;;6.37;;
7154;SDS011;3619;53.784;10.440;2023-05-07T01:26:57;5.43;;;5.23;;
7154;SDS011;3619;53.784;10.440;2023-05-07T01:29:26;5.53;;;5.33;;
7154;SDS011;3619;53.784;10.440;2023-05-07T01:31:54;5.70;;;5.50;;
7154;SDS011;3619;53.784;10.440;2023-05-07T01:34:24;6.03;;;5.83;;
7154;SDS011;3619;53.784;10.440;2023-05-07T01:36:52;6.37;;;6.17;;
7154;SDS011;3619;53.784;10.440;2023-05-07T01:39:22;6.73;;;6.53;;
7154;SDS011;3619;53.784;10.440;2023-05-07T01:41:52;6.80;;;6.60;;
7154;SDS011;3619;53.784;10.440;2023-05-07T01:44:20;6.77;;;6.57;;
7154;SDS011;3619;53.784;10.440;2023-05-07T01:46:47;5.93;;;5.73;;
7154;SDS011;3619;53.784;10.440;2023-05-07T01:49:14;6.77;;;6.57;;
7154;SDS011;3619;53.784;10.440;2023-05-07T01:51:42;6.87;;;6.67;;
7154;SDS011;3619;53.784;10.440;2023-05-07T01:54:09;7.80;;;7.50;;
7154;SDS011;3619;53.784;10.440;2023-05-07T01:56:36;7.47;;;7.17;;
7154;SDS011;3619;53.784;10.440;2023-05-07T01:59:04;7.23;;;6.93;;
7154;SDS011;3619;53.784;10.440;2023-05-07T02:01:31;7.83;;;7.53;;
7154;SDS011;3619;53.784;10.440;2023-05-07T02:03:58;8.10;;;7.80;;
7154;SDS011;3619;53.784;10.440;2023-05-07T02:06:25;8.73;;;8.43;;
7154;SDS011;3619;53.784;10.440;2023-05-07T02:08:52;8.63;;;8.33;;
7154;SDS011;3619;53.784;10.440;2023-05-07T02:11:19;9.90;;;9.50;;
7154;SDS011;3619;53.784;10.440;2023-05-07T02:13:46;9.43;;;9.10;;
7154;SDS011;3619;53.784;10.440;2023-05-07T02:16:14;8.37;;;8.07;;
7154;SDS011;3619;53.784;10.440;2023-05-07T02:18:40;9.33;;;8.93;;
7154;SDS011;3619;53.784;10.440;2023-05-07T02:21:07;7.57;;;7.27;;
7154;SDS011;3619;53.784;10.440;2023-05-07T02:23:34;8.23;;;7.93;;
7154;SDS011;3619;53.784;10.440;2023-05-07T02:26:01;7.13;;;6.83;;
7154;SDS011;3619;53.784;10.440;2023-05-07T02:28:28;7.93;;;7.63;;
7154;SDS011;3619;53.784;10.440;2023-05-07T02:30:54;7.53;;;7.23;;
7154;SDS011;3619;53.784;10.440;2023-05-07T02:33:27;7.27;;;6.97;;
7154;SDS011;3619;53.784;10.440;2023-05-07T02:35:53;6.57;;;6.37;;
7154;SDS011;3619;53.784;10.440;2023-05-07T02:38:20;6.43;;;6.23;;
7154;SDS011;3619;53.784;10.440;2023-05-07T02:40:47;8.07;;;7.77;;
7154;SDS011;3619;53.784;10.440;2023-05-07T02:43:14;8.07;;;7.77;;
7154;SDS011;3619;53.784;10.440;2023-05-07T02:45:41;7.80;;;7.50;;
7154;SDS011;3619;53.784;10.440;2023-05-07T02:48:08;6.53;;;6.33;;
7154;SDS011;3619;53.784;10.440;2023-05-07T02:50:36;7.73;;;7.43;;
7154;SDS011;3619;53.784;10.440;2023-05-07T02:53:03;7.70;;;7.40;;
7154;SDS011;3619;53.784;10.440;2023-05-07T02:55:30;8.03;;;7.73;;
7154;SDS011;3619;53.784;10.440;2023-05-07T02:57:57;7.83;;;7.53;;
7154;SDS011;3619;53.784;10.440;2023-05-07T03:00:24;8.63;;;8.33;;
7154;SDS011;3619;53.784;10.440;2023-05-07T03:02:51;7.77;;;7.47;;
7154;SDS011;3619;53.784;10.440;2023-05-07T03:05:17;7.77;;;7.47;;
7154;SDS011;3619;53.784;10.440;2023-05-07T03:07:48;7.90;;;7.60;;
7154;SDS011;3619;53.784;10.440;2023-05-07T03:10:15;6.53;;;6.33;;
7154;SDS011;3619;53.784;10.440;2023-05-07T03:12:41;6.97;;;6.70;;
7154;SDS011;3619;53.784;10.440;2023-05-07T03:15:11;7.03;;;6.73;;
7154;SDS011;3619;53.784;10.440;2023-05-07T03:17:38;7.43;;;7.13;;
7154;SDS011;3619;53.784;10.440;2023-05-07T03:20:05;7.73;;;7.43;;
7154;SDS011;3619;53.784;10.440;2023-05-07T03:22:34;7.23;;;6.93;;
7154;SDS011;3619;53.784;10.440;2023-05-07T03:25:02;6.30;;;6.10;;
7154;SDS011;3619;53.784;10.440;2023-05-07T03:27:29;6.23;;;6.03;;
7154;SDS011;3619;53.784;10.440;2023-05-07T03:29:56;7.57;;;7.27;;
7154;SDS011;3619;53.784;10.440;2023-05-07T03:32:23;6.57;;;6.37;;
7154;SDS011;3619;53.784;10.440;2023-05-07T03:34:50;7.13;;;6.83;;
7154;SDS011;3619;53.784;10.440;2023-05-07T03:37:17;6.33;;;6.13;;
7154;SDS011;3619;53.784;10.440;2023-05-07T03:39:44;7.37;;;7.07;;
7154;SDS011;3619;53.784;10.440;2023-05-07T03:42:12;6.20;;;6.00;;
7154;SDS011;3619;53.784;10.440;2023-05-07T03:44:39;6.53;;;6.33;;
7154;SDS011;3619;53.784;10.440;2023-05-07T03:47:06;6.27;;;6.07;;
7154;SDS011;3619;53.784;10.440;2023-05-07T03:49:33;6.23;;;6.03;;
7154;SDS011;3619;53.784;10.440;2023-05-07T03:52:00;7.27;;;6.97;;
7154;SDS011;3619;53.784;10.440;2023-05-07T03:54:29;6.37;;;6.17;;
7154;SDS011;3619;53.784;10.440;2023-05-07T03:56:56;8.07;;;7.77;;
7154;SDS011;3619;53.784;10.440;2023-05-07T03:59:24;5.57;;;5.37;;
7154;SDS011;3619;53.784;10.440;2023-05-07T04:01:53;6.17;;;5.97;;
7154;SDS011;3619;53.784;10.440;2023-05-07T04:04:20;5.17;;;4.97;;
7154;SDS011;3619;53.784;10.440;2023-05-07T04:06:47;6.53;;;6.33;;
7154;SDS011;3619;53.784;10.440;2023-05-07T04:09:14;5.77;;;5.57;;
7154;SDS011;3619;53.784;10.440;2023-05-07T04:11:40;5.83;;;5.63;;
7154;SDS011;3619;53.784;10.440;2023-05-07T04:14:07;6.80;;;6.60;;
7154;SDS011;3619;53.784;10.440;2023-05-07T04:16:35;6.27;;;6.07;;
7154;SDS011;3619;53.784;10.440;2023-05-07T04:19:02;5.80;;;5.60;;
7154;SDS011;3619;53.784;10.440;2023-05-07T04:21:29;5.87;;;5.67;;
7154;SDS011;3619;53.784;10.440;2023-05-07T04:23:56;6.40;;;6.20;;
7154;SDS011;3619;53.784;10.440;2023-05-07T04:26:22;7.03;;;6.77;;
7154;SDS011;3619;53.784;10.440;2023-05-07T04:28:49;6.23;;;6.03;;
7154;SDS011;3619;53.784;10.440;2023-05-07T04:31:16;5.57;;;5.37;;
7154;SDS011;3619;53.784;10.440;2023-05-07T04:33:44;5.93;;;5.73;;
7154;SDS011;3619;53.784;10.440;2023-05-07T04:36:11;7.73;;;7.43;;
7154;SDS011;3619;53.784;10.440;2023-05-07T04:38:38;5.10;;;4.90;;
7154;SDS011;3619;53.784;10.440;2023-05-07T04:41:05;5.60;;;5.40;;
7154;SDS011;3619;53.784;10.440;2023-05-07T04:43:32;5.93;;;5.73;;
7154;SDS011;3619;53.784;10.440;2023-05-07T04:45:59;5.87;;;5.67;;
7154;SDS011;3619;53.784;10.440;2023-05-07T04:48:26;8.47;;;8.17;;
7154;SDS011;3619;53.784;10.440;2023-05-07T04:50:55;7.00;;;6.73;;
7154;SDS011;3619;53.784;10.440;2023-05-07T04:53:22;6.23;;;6.03;;
7154;SDS011;3619;53.784;10.440;2023-05-07T04:55:54;6.60;;;6.40;;
7154;SDS011;3619;53.784;10.440;2023-05-07T04:58:21;7.17;;;6.87;;
7154;SDS011;3619;53.784;10.440;2023-05-07T05:00:48;7.83;;;7.53;;
7154;SDS011;3619;53.784;10.440;2023-05-07T05:03:15;5.63;;;5.43;;
7154;SDS011;3619;53.784;10.440;2023-05-07T05:05:42;5.90;;;5.70;;
7154;SDS011;3619;53.784;10.440;2023-05-07T05:08:10;5.83;;;5.63;;
7154;SDS011;3619;53.784;10.440;2023-05-07T05:10:37;6.00;;;5.80;;
7154;SDS011;3619;53.784;10.440;2023-05-07T05:13:03;6.33;;;6.13;;
7154;SDS011;3619;53.784;10.440;2023-05-07T05:15:30;6.67;;;6.47;;
7154;SDS011;3619;53.784;10.440;2023-05-07T05:17:57;5.60;;;5.40;;
7154;SDS011;3619;53.784;10.440;2023-05-07T05:20:24;6.03;;;5.83;;
7154;SDS011;3619;53.784;10.440;2023-05-07T05:22:51;6.67;;;6.47;;
7154;SDS011;3619;53.784;10.440;2023-05-07T05:25:19;6.33;;;6.13;;
7154;SDS011;3619;53.784;10.440;2023-05-07T05:27:45;6.20;;;6.00;;
7154;SDS011;3619;53.784;10.440;2023-05-07T05:30:12;6.67;;;6.47;;
7154;SDS011;3619;53.784;10.440;2023-05-07T05:32:40;6.50;;;6.23;;
7154;SDS011;3619;53.784;10.440;2023-05-07T05:35:07;6.30;;;6.10;;
7154;SDS011;3619;53.784;10.440;2023-05-07T05:37:34;6.27;;;6.07;;
7154;SDS011;3619;53.784;10.440;2023-05-07T05:40:01;6.03;;;5.83;;
7154;SDS011;3619;53.784;10.440;2023-05-07T05:42:30;5.73;;;5.53;;
7154;SDS011;3619;53.784;10.440;2023-05-07T05:44:57;5.63;;;5.43;;
7154;SDS011;3619;53.784;10.440;2023-05-07T05:47:23;4.90;;;4.70;;
7154;SDS011;3619;53.784;10.440;2023-05-07T05:49:50;4.90;;;4.70;;
7154;SDS011;3619;53.784;10.440;2023-05-07T05:52:17;5.00;;;4.80;;
7154;SDS011;3619;53.784;10.440;2023-05-07T05:54:44;4.93;;;4.73;;
7154;SDS011;3619;53.784;10.440;2023-05-07T05:57:11;5.07;;;4.87;;
7154;SDS011;3619;53.784;10.440;2023-05-07T05:59:39;5.83;;;5.63;;
7154;SDS011;3619;53.784;10.440;2023-05-07T06:02:07;5.93;;;5.73;;
7154;SDS011;3619;53.784;10.440;2023-05-07T06:04:33;6.57;;;6.37;;
7154;SDS011;3619;53.784;10.440;2023-05-07T06:07:00;5.87;;;5.67;;
7154;SDS011;3619;53.784;10.440;2023-05-07T06:09:27;5.07;;;4.87;;
7154;SDS011;3619;53.784;10.440;2023-05-07T06:11:54;4.83;;;4.63;;
7154;SDS011;3619;53.784;10.440;2023-05-07T06:14:20;5.03;;;4.83;;
7154;SDS011;3619;53.784;10.440;2023-05-07T06:16:49;4.87;;;4.67;;
7154;SDS011;3619;53.784;10.440;2023-05-07T06:19:16;4.87;;;4.67;;
7154;SDS011;3619;53.784;10.440;2023-05-07T06:21:49;5.37;;;5.17;;
7154;SDS011;3619;53.784;10.440;2023-05-07T06:24:15;5.13;;;4.93;;
7154;SDS011;3619;53.784;10.440;2023-05-07T06:26:42;5.73;;;5.53;;
7154;SDS011;3619;53.784;10.440;2023-05-07T06:29:09;5.70;;;5.50;;
7154;SDS011;3619;53.784;10.440;2023-05-07T06:31:35;6.20;;;6.00;;
7154;SDS011;3619;53.784;10.440;2023-05-07T06:34:04;5.00;;;4.80;;
7154;SDS011;3619;53.784;10.440;2023-05-07T06:36:30;5.53;;;5.33;;
7154;SDS011;3619;53.784;10.440;2023-05-07T06:38:57;5.13;;;4.93;;
7154;SDS011;3619;53.784;10.440;2023-05-07T06:41:24;5.57;;;5.37;;
7154;SDS011;3619;53.784;10.440;2023-05-07T06:43:51;5.23;;;5.03;;
7154;SDS011;3619;53.784;10.440;2023-05-07T06:46:18;5.30;;;5.10;;
7154;SDS011;3619;53.784;10.440;2023-05-07T06:48:44;4.50;;;4.33;;
7154;SDS011;3619;53.784;10.440;2023-05-07T06:51:13;4.27;;;4.17;;
7154;SDS011;3619;53.784;10.440;2023-05-07T06:53:39;4.67;;;4.47;;
7154;SDS011;3619;53.784;10.440;2023-05-07T06:56:06;3.80;;;3.70;;
7154;SDS011;3619;53.784;10.440;2023-05-07T06:58:33;4.10;;;4.00;;
7154;SDS011;3619;53.784;10.440;2023-05-07T07:01:00;3.97;;;3.87;;
7154;SDS011;3619;53.784;10.440;2023-05-07T07:03:26;3.77;;;3.67;;
7154;SDS011;3619;53.784;10.440;2023-05-07T07:05:53;4.57;;;4.37;;
7154;SDS011;3619;53.784;10.440;2023-05-07T07:08:22;3.57;;;3.47;;
7154;SDS011;3619;53.784;10.440;2023-05-07T07:10:49;4.13;;;3.93;;
7154;SDS011;3619;53.784;10.440;2023-05-07T07:13:16;3.40;;;3.30;;
7154;SDS011;3619;53.784;10.440;2023-05-07T07:15:44;3.40;;;3.30;;
7154;SDS011;3619;53.784;10.440;2023-05-07T07:18:12;3.33;;;3.23;;
7154;SDS011;3619;53.784;10.440;2023-05-07T07:20:39;3.27;;;3.17;;
7154;SDS011;3619;53.784;10.440;2023-05-07T07:23:06;2.87;;;2.77;;
7154;SDS011;3619;53.784;10.440;2023-05-07T07:25:34;2.80;;;2.70;;
7154;SDS011;3619;53.784;10.440;2023-05-07T07:28:01;2.70;;;2.60;;
7154;SDS011;3619;53.784;10.440;2023-05-07T07:30:27;2.73;;;2.63;;
7154;SDS011;3619;53.784;10.440;2023-05-07T07:32:54;2.70;;;2.60;;
7154;SDS011;3619;53.784;10.440;2023-05-07T07:35:27;2.67;;;2.57;;
7154;SDS011;3619;53.784;10.440;2023-05-07T07:37:54;2.47;;;2.37;;
7154;SDS011;3619;53.784;10.440;2023-05-07T07:40:24;2.70;;;2.60;;
7154;SDS011;3619;53.784;10.440;2023-05-07T07:42:52;2.77;;;2.67;;
7154;SDS011;3619;53.784;10.440;2023-05-07T07:45:19;2.50;;;2.40;;
7154;SDS011;3619;53.784;10.440;2023-05-07T07:47:49;5.50;;;5.30;;
7154;SDS011;3619;53.784;10.440;2023-05-07T07:50:17;2.10;;;2.00;;
7154;SDS011;3619;53.784;10.440;2023-05-07T07:52:44;2.50;;;2.40;;
7154;SDS011;3619;53.784;10.440;2023-05-07T07:55:11;2.93;;;2.83;;
7154;SDS011;3619;53.784;10.440;2023-05-07T07:57:38;2.10;;;2.00;;
7154;SDS011;3619;53.784;10.440;2023-05-07T08:00:07;2.73;;;2.63;;
7154;SDS011;3619;53.784;10.440;2023-05-07T08:02:34;2.40;;;2.30;;
7154;SDS011;3619;53.784;10.440;2023-05-07T08:05:01;2.37;;;2.27;;
7154;SDS011;3619;53.784;10.440;2023-05-07T08:07:28;2.30;;;2.20;;
7154;SDS011;3619;53.784;10.440;2023-05-07T08:09:54;2.20;;;2.10;;
7154;SDS011;3619;53.784;10.440;2023-05-07T08:12:21;2.80;;;2.70;;
7154;SDS011;3619;53.784;10.440;2023-05-07T08:14:48;2.30;;;2.20;;
7154;SDS011;3619;53.784;10.440;2023-05-07T08:17:16;2.40;;;2.30;;
7154;SDS011;3619;53.784;10.440;2023-05-07T08:19:43;2.00;;;1.90;;
7154;SDS011;3619;53.784;10.440;2023-05-07T08:22:10;2.30;;;2.20;;
7154;SDS011;3619;53.784;10.440;2023-05-07T08:24:37;2.30;;;2.20;;
7154;SDS011;3619;53.784;10.440;2023-05-07T08:27:03;2.40;;;2.30;;
7154;SDS011;3619;53.784;10.440;2023-05-07T08:29:30;2.67;;;2.57;;
7154;SDS011;3619;53.784;10.440;2023-05-07T08:31:57;2.20;;;2.10;;
7154;SDS011;3619;53.784;10.440;2023-05-07T08:34:25;2.30;;;2.20;;
7154;SDS011;3619;53.784;10.440;2023-05-07T08:36:52;2.77;;;2.67;;
7154;SDS011;3619;53.784;10.440;2023-05-07T08:39:19;2.40;;;2.30;;
7154;SDS011;3619;53.784;10.440;2023-05-07T08:41:46;2.60;;;2.50;;
7154;SDS011;3619;53.784;10.440;2023-05-07T08:44:14;2.10;;;2.00;;
7154;SDS011;3619;53.784;10.440;2023-05-07T08:46:43;2.57;;;2.47;;
7154;SDS011;3619;53.784;10.440;2023-05-07T08:49:13;2.30;;;2.20;;
7154;SDS011;3619;53.784;10.440;2023-05-07T08:51:42;2.30;;;2.20;;
7154;SDS011;3619;53.784;10.440;2023-05-07T08:54:09;2.27;;;2.17;;
7154;SDS011;3619;53.784;10.440;2023-05-07T08:56:38;2.20;;;2.10;;
7154;SDS011;3619;53.784;10.440;2023-05-07T08:59:05;2.10;;;2.00;;
7154;SDS011;3619;53.784;10.440;2023-05-07T09:01:32;2.30;;;2.20;;
7154;SDS011;3619;53.784;10.440;2023-05-07T09:04:00;2.17;;;2.07;;
7154;SDS011;3619;53.784;10.440;2023-05-07T09:06:27;2.03;;;1.93;;
7154;SDS011;3619;53.784;10.440;2023-05-07T09:08:56;3.03;;;2.93;;
7154;SDS011;3619;53.784;10.440;2023-05-07T09:11:23;2.17;;;2.07;;
7154;SDS011;3619;53.784;10.440;2023-05-07T09:13:53;1.70;;;1.70;;
7154;SDS011;3619;53.784;10.440;2023-05-07T09:16:21;1.80;;;1.80;;
7154;SDS011;3619;53.784;10.440;2023-05-07T09:18:50;1.80;;;1.80;;
7154;SDS011;3619;53.784;10.440;2023-05-07T09:21:18;1.80;;;1.80;;
7154;SDS011;3619;53.784;10.440;2023-05-07T09:23:48;2.10;;;2.00;;
7154;SDS011;3619;53.784;10.440;2023-05-07T09:26:18;1.50;;;1.50;;
7154;SDS011;3619;53.784;10.440;2023-05-07T09:28:47;1.87;;;1.83;;
7154;SDS011;3619;53.784;10.440;2023-05-07T09:31:14;1.60;;;1.60;;
7154;SDS011;3619;53.784;10.440;2023-05-07T09:33:41;1.87;;;1.83;;
7154;SDS011;3619;53.784;10.440;2023-05-07T09:36:08;2.00;;;1.90;;
7154;SDS011;3619;53.784;10.440;2023-05-07T09:38:37;1.67;;;1.67;;
7154;SDS011;3619;53.784;10.440;2023-05-07T09:41:04;1.70;;;1.70;;
7154;SDS011;3619;53.784;10.440;2023-05-07T09:43:34;1.70;;;1.70;;
7154;SDS011;3619;53.784;10.440;2023-05-07T09:46:06;1.97;;;1.87;;
7154;SDS011;3619;53.784;10.440;2023-05-07T09:48:35;1.80;;;1.80;;
7154;SDS011;3619;53.784;10.440;2023-05-07T09:51:06;2.00;;;1.90;;
7154;SDS011;3619;53.784;10.440;2023-05-07T09:53:52;1.70;;;1.70;;
7154;SDS011;3619;53.784;10.440;2023-05-07T09:56:19;1.70;;;1.70;;
7154;SDS011;3619;53.784;10.440;2023-05-07T09:58:48;1.60;;;1.60;;
7154;SDS011;3619;53.784;10.440;2023-05-07T10:01:18;1.70;;;1.70;;
7154;SDS011;3619;53.784;10.440;2023-05-07T10:03:47;1.63;;;1.63;;
7154;SDS011;3619;53.784;10.440;2023-05-07T10:06:16;1.57;;;1.57;;
7154;SDS011;3619;53.784;10.440;2023-05-07T10:08:43;1.70;;;1.70;;
7154;SDS011;3619;53.784;10.440;2023-05-07T10:11:10;1.53;;;1.53;;
7154;SDS011;3619;53.784;10.440;2023-05-07T10:13:38;1.47;;;1.47;;
7154;SDS011;3619;53.784;10.440;2023-05-07T10:16:06;1.63;;;1.63;;
7154;SDS011;3619;53.784;10.440;2023-05-07T10:18:33;1.47;;;1.47;;
7154;SDS011;3619;53.784;10.440;2023-05-07T10:21:02;1.87;;;1.83;;
7154;SDS011;3619;53.784;10.440;2023-05-07T10:23:32;1.37;;;1.37;;
7154;SDS011;3619;53.784;10.440;2023-05-07T10:26:00;1.40;;;1.40;;
7154;SDS011;3619;53.784;10.440;2023-05-07T10:28:30;1.20;;;1.20;;
7154;SDS011;3619;53.784;10.440;2023-05-07T10:31:08;1.40;;;1.40;;
7154;SDS011;3619;53.784;10.440;2023-05-07T10:33:45;1.37;;;1.37;;
7154;SDS011;3619;53.784;10.440;2023-05-07T10:36:17;1.10;;;1.10;;
7154;SDS011;3619;53.784;10.440;2023-05-07T10:38:44;1.20;;;1.20;;
7154;SDS011;3619;53.784;10.440;2023-05-07T10:41:11;1.27;;;1.27;;
7154;SDS011;3619;53.784;10.440;2023-05-07T10:43:40;1.10;;;1.10;;
7154;SDS011;3619;53.784;10.440;2023-05-07T10:46:13;1.20;;;1.20;;
7154;SDS011;3619;53.784;10.440;2023-05-07T10:51:32;1.00;;;1.00;;
7154;SDS011;3619;53.784;10.440;2023-05-07T10:54:18;1.40;;;1.40;;
7154;SDS011;3619;53.784;10.440;2023-05-07T10:56:47;1.50;;;1.50;;
7154;SDS011;3619;53.784;10.440;2023-05-07T10:59:34;1.50;;;1.50;;
7154;SDS011;3619;53.784;10.440;2023-05-07T11:02:08;1.30;;;1.30;;
7154;SDS011;3619;53.784;10.440;2023-05-07T11:04:39;1.27;;;1.27;;
7154;SDS011;3619;53.784;10.440;2023-05-07T11:09:58;1.30;;;1.30;;
7154;SDS011;3619;53.784;10.440;2023-05-07T11:15:16;1.37;;;1.37;;
7154;SDS011;3619;53.784;10.440;2023-05-07T11:18:05;1.40;;;1.40;;
7154;SDS011;3619;53.784;10.440;2023-05-07T11:20:44;1.50;;;1.50;;
7154;SDS011;3619;53.784;10.440;2023-05-07T11:26:21;1.40;;;1.40;;
7154;SDS011;3619;53.784;10.440;2023-05-07T11:28:48;1.60;;;1.60;;
7154;SDS011;3619;53.784;10.440;2023-05-07T11:31:20;1.50;;;1.50;;
7154;SDS011;3619;53.784;10.440;2023-05-07T11:33:50;1.27;;;1.27;;
7154;SDS011;3619;53.784;10.440;2023-05-07T11:36:18;1.50;;;1.50;;
7154;SDS011;3619;53.784;10.440;2023-05-07T11:38:46;1.40;;;1.40;;
7154;SDS011;3619;53.784;10.440;2023-05-07T11:41:13;1.30;;;1.30;;
7154;SDS011;3619;53.784;10.440;2023-05-07T11:43:53;1.50;;;1.50;;
7154;SDS011;3619;53.784;10.440;2023-05-07T11:46:22;1.40;;;1.40;;
7154;SDS011;3619;53.784;10.440;2023-05-07T11:48:50;1.40;;;1.40;;
7154;SDS011;3619;53.784;10.440;2023-05-07T11:51:21;1.30;;;1.30;;
7154;SDS011;3619;53.784;10.440;2023-05-07T11:53:49;1.20;;;1.20;;
7154;SDS011;3619;53.784;10.440;2023-05-07T11:56:16;1.40;;;1.40;;
7154;SDS011;3619;53.784;10.440;2023-05-07T11:58:45;1.30;;;1.30;;
7154;SDS011;3619;53.784;10.440;2023-05-07T12:01:14;1.50;;;1.50;;
7154;SDS011;3619;53.784;10.440;2023-05-07T12:03:42;1.50;;;1.50;;
7154;SDS011;3619;53.784;10.440;2023-05-07T12:06:12;1.40;;;1.40;;
7154;SDS011;3619;53.784;10.440;2023-05-07T12:08:40;1.47;;;1.47;;
7154;SDS011;3619;53.784;10.440;2023-05-07T12:11:08;1.40;;;1.40;;
7154;SDS011;3619;53.784;10.440;2023-05-07T12:13:36;1.40;;;1.40;;
7154;SDS011;3619;53.784;10.440;2023-05-07T12:16:04;1.53;;;1.53;;
7154;SDS011;3619;53.784;10.440;2023-05-07T12:18:32;1.40;;;1.40;;
7154;SDS011;3619;53.784;10.440;2023-05-07T12:21:00;1.63;;;1.63;;
7154;SDS011;3619;53.784;10.440;2023-05-07T12:23:29;1.53;;;1.53;;
7154;SDS011;3619;53.784;10.440;2023-05-07T12:25:56;1.30;;;1.30;;
7154;SDS011;3619;53.784;10.440;2023-05-07T12:28:23;1.60;;;1.60;;
7154;SDS011;3619;53.784;10.440;2023-05-07T12:30:50;1.50;;;1.50;;
7154;SDS011;3619;53.784;10.440;2023-05-07T12:33:19;1.37;;;1.37;;
7154;SDS011;3619;53.784;10.440;2023-05-07T12:35:49;1.60;;;1.60;;
7154;SDS011;3619;53.784;10.440;2023-05-07T12:38:16;1.40;;;1.40;;
7154;SDS011;3619;53.784;10.440;2023-05-07T12:40:46;1.50;;;1.50;;
7154;SDS011;3619;53.784;10.440;2023-05-07T12:43:16;1.53;;;1.53;;
7154;SDS011;3619;53.784;10.440;2023-05-07T12:45:43;1.37;;;1.37;;
7154;SDS011;3619;53.784;10.440;2023-05-07T12:48:11;1.23;;;1.23;;
7154;SDS011;3619;53.784;10.440;2023-05-07T12:50:38;1.17;;;1.17;;
7154;SDS011;3619;53.784;10.440;2023-05-07T12:53:05;1.20;;;1.20;;
7154;SDS011;3619;53.784;10.440;2023-05-07T12:55:39;1.30;;;1.30;;
7154;SDS011;3619;53.784;10.440;2023-05-07T12:58:08;1.40;;;1.40;;
7154;SDS011;3619;53.784;10.440;2023-05-07T13:00:42;1.30;;;1.30;;
7154;SDS011;3619;53.784;10.440;2023-05-07T13:03:09;1.30;;;1.30;;
7154;SDS011;3619;53.784;10.440;2023-05-07T13:05:36;1.40;;;1.40;;
7154;SDS011;3619;53.784;10.440;2023-05-07T13:08:03;1.33;;;1.33;;
7154;SDS011;3619;53.784;10.440;2023-05-07T13:10:30;1.43;;;1.43;;
7154;SDS011;3619;53.784;10.440;2023-05-07T13:12:57;1.30;;;1.30;;
7154;SDS011;3619;53.784;10.440;2023-05-07T13:15:26;1.33;;;1.33;;
7154;SDS011;3619;53.784;10.440;2023-05-07T13:17:53;1.23;;;1.23;;
7154;SDS011;3619;53.784;10.440;2023-05-07T13:20:20;1.30;;;1.30;;
7154;SDS011;3619;53.784;10.440;2023-05-07T13:22:47;1.30;;;1.30;;
7154;SDS011;3619;53.784;10.440;2023-05-07T13:25:14;1.30;;;1.30;;
7154;SDS011;3619;53.784;10.440;2023-05-07T13:27:41;1.47;;;1.47;;
7154;SDS011;3619;53.784;10.440;2023-05-07T13:30:09;1.43;;;1.43;;
7154;SDS011;3619;53.784;10.440;2023-05-07T13:32:37;1.50;;;1.50;;
7154;SDS011;3619;53.784;10.440;2023-05-07T13:35:04;1.30;;;1.30;;
7154;SDS011;3619;53.784;10.440;2023-05-07T13:37:32;1.17;;;1.17;;
7154;SDS011;3619;53.784;10.440;2023-05-07T13:39:58;1.33;;;1.33;;
7154;SDS011;3619;53.784;10.440;2023-05-07T13:42:25;1.20;;;1.20;;
7154;SDS011;3619;53.784;10.440;2023-05-07T13:44:52;1.10;;;1.10;;
7154;SDS011;3619;53.784;10.440;2023-05-07T13:47:19;1.40;;;1.40;;
7154;SDS011;3619;53.784;10.440;2023-05-07T13:49:47;1.20;;;1.20;;
7154;SDS011;3619;53.784;10.440;2023-05-07T13:52:15;1.50;;;1.50;;
7154;SDS011;3619;53.784;10.440;2023-05-07T13:54:42;1.30;;;1.30;;
7154;SDS011;3619;53.784;10.440;2023-05-07T13:57:08;1.30;;;1.30;;
7154;SDS011;3619;53.784;10.440;2023-05-07T13:59:35;1.30;;;1.30;;
7154;SDS011;3619;53.784;10.440;2023-05-07T14:02:02;1.20;;;1.20;;
7154;SDS011;3619;53.784;10.440;2023-05-07T14:04:29;1.30;;;1.30;;
7154;SDS011;3619;53.784;10.440;2023-05-07T14:06:58;0.90;;;0.90;;
7154;SDS011;3619;53.784;10.440;2023-05-07T14:09:25;1.00;;;1.00;;
7154;SDS011;3619;53.784;10.440;2023-05-07T14:11:52;1.10;;;1.10;;
7154;SDS011;3619;53.784;10.440;2023-05-07T14:14:18;1.00;;;1.00;;
7154;SDS011;3619;53.784;10.440;2023-05-07T14:16:47;0.73;;;0.73;;
7154;SDS011;3619;53.784;10.440;2023-05-07T14:19:14;1.00;;;1.00;;
7154;SDS011;3619;53.784;10.440;2023-05-07T14:21:40;0.90;;;0.90;;
7154;SDS011;3619;53.784;10.440;2023-05-07T14:24:09;1.10;;;1.10;;
7154;SDS011;3619;53.784;10.440;2023-05-07T14:26:36;0.90;;;0.90;;
7154;SDS011;3619;53.784;10.440;2023-05-07T14:29:03;1.00;;;1.00;;
7154;SDS011;3619;53.784;10.440;2023-05-07T14:31:30;1.00;;;1.00;;
7154;SDS011;3619;53.784;10.440;2023-05-07T14:33:58;0.90;;;0.90;;
7154;SDS011;3619;53.784;10.440;2023-05-07T14:36:25;1.10;;;1.10;;
7154;SDS011;3619;53.784;10.440;2023-05-07T14:38:52;1.10;;;1.10;;
7154;SDS011;3619;53.784;10.440;2023-05-07T14:41:21;1.00;;;1.00;;
7154;SDS011;3619;53.784;10.440;2023-05-07T14:43:49;0.97;;;0.97;;
7154;SDS011;3619;53.784;10.440;2023-05-07T14:46:16;1.00;;;1.00;;
7154;SDS011;3619;53.784;10.440;2023-05-07T14:51:11;1.00;;;1.00;;
7154;SDS011;3619;53.784;10.440;2023-05-07T14:53:38;0.90;;;0.90;;
7154;SDS011;3619;53.784;10.440;2023-05-07T14:56:07;1.00;;;1.00;;
7154;SDS011;3619;53.784;10.440;2023-05-07T14:58:36;1.10;;;1.10;;
7154;SDS011;3619;53.784;10.440;2023-05-07T15:01:03;1.23;;;1.23;;
7154;SDS011;3619;53.784;10.440;2023-05-07T15:03:29;1.00;;;1.00;;
7154;SDS011;3619;53.784;10.440;2023-05-07T15:05:56;1.10;;;1.10;;
7154;SDS011;3619;53.784;10.440;2023-05-07T15:08:23;1.10;;;1.10;;
7154;SDS011;3619;53.784;10.440;2023-05-07T15:10:50;1.10;;;1.10;;
7154;SDS011;3619;53.784;10.440;2023-05-07T15:13:16;1.00;;;1.00;;
7154;SDS011;3619;53.784;10.440;2023-05-07T15:15:44;1.10;;;1.10;;
7154;SDS011;3619;53.784;10.440;2023-05-07T15:18:11;0.90;;;0.90;;